Time;durP1;ratioP1;P1;durP2;ratioP2;P2;SDS_P1;SDS_P2;PMS_P1;PMS_P2;Temp;Humidity;BMP_temperature;BMP_pressure;BME280_temperature;BME280_humidity;BME280_pressure;Samples;Min_cycle;Max_cycle;Signal;HPM_P1;HPM_P2
2021/02/12 00:03:51;;;;;;;1.20;1.20;;;;;;;-9.13;78.68;97880.13;299395;202;63009;-56
2021/02/12 00:08:53;;;;;;;1.20;1.20;;;;;;;-9.10;78.67;97868.47;299395;202;63004;-55
2021/02/12 00:13:55;;;;;;;1.10;1.10;;;;;;;-9.16;78.79;97874.31;299395;522;63009;-56
2021/02/12 00:19:01;;;;;;;1.10;1.10;;;;;;;-9.15;78.67;97871.53;299395;450;63005;-55
2021/02/12 00:24:04;;;;;;;1.10;1.10;;;;;;;-9.16;79.30;97875.16;299395;239;63009;-59
2021/02/12 00:29:14;;;;;;;1.15;1.15;;;;;;;-9.19;79.48;97874.59;299395;206;63005;-55
2021/02/12 00:34:15;;;;;;;1.10;1.10;;;;;;;-9.22;78.77;97864.38;299395;541;63009;-54
2021/02/12 00:39:20;;;;;;;1.10;1.10;;;;;;;-9.23;79.33;97867.97;299395;330;63004;-55
2021/02/12 00:44:21;;;;;;;1.20;1.20;;;;;;;-9.25;78.75;97860.25;299395;229;63009;-55
2021/02/12 00:49:22;;;;;;;1.10;1.10;;;;;;;-9.26;79.02;97878.78;299395;730;63009;-58
2021/02/12 00:54:23;;;;;;;1.20;1.20;;;;;;;-9.33;78.63;97867.19;299395;228;63004;-55
2021/02/12 00:59:24;;;;;;;1.10;1.10;;;;;;;-9.38;79.04;97877.31;299395;212;63009;-55
2021/02/12 01:04:25;;;;;;;1.10;1.10;;;;;;;-9.38;78.86;97885.22;299395;204;63005;-55
2021/02/12 01:09:26;;;;;;;1.10;1.10;;;;;;;-9.38;79.04;97877.31;299395;218;63008;-55
2021/02/12 01:14:26;;;;;;;1.20;1.20;;;;;;;-9.68;78.76;97883.63;299395;223;63004;-55
2021/02/12 01:19:27;;;;;;;1.10;1.10;;;;;;;-9.77;79.21;97895.81;299395;348;63009;-54
2021/02/12 01:24:28;;;;;;;1.10;1.10;;;;;;;-9.74;79.85;97889.47;299395;242;63004;-54
2021/02/12 01:29:29;;;;;;;1.10;1.10;;;;;;;-9.68;79.07;97883.63;299395;240;63009;-57
2021/02/12 01:34:30;;;;;;;1.10;1.10;;;;;;;-9.78;79.87;97885.47;299395;221;63005;-55
2021/02/12 01:39:32;;;;;;;1.10;1.10;;;;;;;-9.71;79.67;97879.50;299395;219;63008;-54
2021/02/12 01:44:32;;;;;;;1.10;1.10;;;;;;;-9.83;79.46;97883.25;299395;198;63004;-55
2021/02/12 01:49:33;;;;;;;1.10;1.10;;;;;;;-10.03;80.18;97876.34;299395;198;63009;-55
2021/02/12 01:54:36;;;;;;;1.30;1.30;;;;;;;-9.91;80.43;97877.88;299395;210;63005;-55
2021/02/12 01:59:37;;;;;;;1.10;1.10;;;;;;;-9.89;81.08;97875.94;299395;199;63009;-54
2021/02/12 02:04:39;;;;;;;1.20;1.20;;;;;;;-9.84;80.60;97884.22;299395;199;63005;-54
2021/02/12 02:10:08;;;;;;;1.10;1.10;;;;;;;-9.75;81.01;97888.63;299395;235;63009;-55
2021/02/12 02:15:11;;;;;;;1.10;1.10;;;;;;;-9.68;80.67;97889.69;299395;243;63004;-54
2021/02/12 02:20:20;;;;;;;1.20;1.20;;;;;;;-9.76;81.30;97880.91;299417;211;63009;-56
2021/02/12 02:25:24;;;;;;;1.10;1.10;;;;;;;-9.67;80.73;97870.34;299395;206;63005;-58
2021/02/12 02:30:27;;;;;;;1.10;1.10;;;;;;;-9.90;81.10;97866.41;299417;223;63009;-55
2021/02/12 02:35:30;;;;;;;1.10;1.10;;;;;;;-9.98;81.20;97871.53;299417;199;63005;-54
2021/02/12 02:40:31;;;;;;;1.00;1.00;;;;;;;-10.09;81.01;97877.78;299395;215;63009;-55
2021/02/12 02:45:32;;;;;;;2.33;2.12;;;;;;;-10.29;81.55;97879.59;299395;204;63004;-55
2021/02/12 02:50:35;;;;;;;1.10;1.10;;;;;;;-10.32;81.24;97872.00;299395;204;63009;-54
2021/02/12 02:55:39;;;;;;;1.10;1.10;;;;;;;-10.17;80.54;97882.87;299395;203;63005;-55
2021/02/12 03:00:43;;;;;;;1.10;1.10;;;;;;;-10.15;80.81;97871.28;299395;264;63009;-55
2021/02/12 03:05:47;;;;;;;1.10;1.10;;;;;;;-10.32;81.34;97869.38;299395;196;63010;-55
2021/02/12 03:10:49;;;;;;;1.10;1.10;;;;;;;-10.30;80.97;97856.94;299417;216;63009;-53
2021/02/12 03:15:52;;;;;;;1.10;1.10;;;;;;;-10.35;80.94;97851.28;299395;215;63004;-55
2021/02/12 03:20:54;;;;;;;1.10;1.10;;;;;;;-10.32;80.48;97858.87;299395;222;63009;-53
2021/02/12 03:25:55;;;;;;;1.20;1.20;;;;;;;-10.29;81.19;97849.91;299395;276;63005;-54
2021/02/12 03:30:57;;;;;;;1.10;1.10;;;;;;;-10.25;80.47;97854.75;299395;218;63008;-54
2021/02/12 03:36:03;;;;;;;1.10;1.10;;;;;;;-10.34;80.47;97845.06;299395;237;63004;-54
2021/02/12 03:41:05;;;;;;;1.10;1.10;;;;;;;-10.30;80.82;97846.44;299394;202;64009;-54
2021/02/12 03:46:06;;;;;;;1.10;1.10;;;;;;;-10.35;81.29;97853.91;299395;224;63004;-54
2021/02/12 03:51:07;;;;;;;1.20;1.20;;;;;;;-10.51;81.70;97849.22;299395;214;63009;-55
2021/02/12 03:56:09;;;;;;;1.20;1.20;;;;;;;-10.43;81.25;97851.16;299395;202;63005;-55
2021/02/12 04:01:10;;;;;;;1.30;1.30;;;;;;;-10.63;81.96;97855.56;299395;214;63019;-54
2021/02/12 04:06:11;;;;;;;1.10;1.10;;;;;;;-10.55;81.71;97853.09;299395;234;63004;-55
2021/02/12 04:11:14;;;;;;;1.10;1.10;;;;;;;-10.57;80.74;97847.16;299395;274;63009;-54
2021/02/12 04:16:16;;;;;;;1.20;1.20;;;;;;;-10.62;81.00;97845.91;299395;221;63005;-55
2021/02/12 04:21:18;;;;;;;1.20;1.20;;;;;;;-10.76;81.63;97843.69;299395;218;63009;-55
2021/02/12 04:26:20;;;;;;;1.48;1.45;;;;;;;-10.77;81.33;97839.41;299395;206;63005;-54
2021/02/12 04:31:22;;;;;;;1.10;1.10;;;;;;;-10.75;81.63;97834.88;299395;207;63009;-54
2021/02/12 04:36:23;;;;;;;1.40;1.40;;;;;;;-10.86;81.51;97833.19;299395;245;63004;-54
2021/02/12 04:41:27;;;;;;;1.65;1.55;;;;;;;-10.93;81.09;97826.84;299395;215;63019;-53
2021/02/12 04:46:56;;;;;;;1.20;1.20;;;;;;;-10.88;81.52;97820.22;299417;210;63005;-55
2021/02/12 04:52:14;;;;;;;1.10;1.10;;;;;;;-10.84;81.74;97826.84;299395;196;63009;-54
2021/02/12 04:57:58;;;;;;;1.20;1.20;;;;;;;-10.78;81.14;97828.09;299396;208;63005;-54
2021/02/12 05:03:30;;;;;;;1.20;1.20;;;;;;;-10.77;81.33;97821.06;299396;234;63009;-57
2021/02/12 05:08:58;;;;;;;1.20;1.20;;;;;;;-10.79;80.77;97823.00;299396;202;63005;-54
2021/02/12 05:14:34;;;;;;;1.20;1.20;;;;;;;-10.99;80.96;97820.34;299396;208;63004;-58
2021/02/12 05:19:59;;;;;;;1.20;1.20;;;;;;;-10.87;81.37;97827.13;299418;214;63009;-54
2021/02/12 05:25:09;;;;;;;1.20;1.20;;;;;;;-10.88;81.28;97825.47;299396;244;63009;-53
2021/02/12 05:30:22;;;;;;;1.10;1.10;;;;;;;-10.85;80.82;97825.19;299396;210;63004;-58
2021/02/12 05:35:31;;;;;;;1.20;1.20;;;;;;;-10.79;80.88;97836.09;299396;222;63009;-53
2021/02/12 05:41:18;;;;;;;1.10;1.10;;;;;;;-10.78;80.75;97832.53;299396;202;63005;-54
2021/02/12 05:46:31;;;;;;;1.10;1.10;;;;;;;-10.83;80.84;97848.66;299397;211;63009;-54
2021/02/12 05:52:08;;;;;;;1.10;1.10;;;;;;;-10.93;80.72;97842.56;299396;208;63004;-56
2021/02/12 05:57:19;;;;;;;1.20;1.20;;;;;;;-10.90;80.79;97848.38;299396;207;63009;-54
2021/02/12 06:02:57;;;;;;;1.20;1.20;;;;;;;-11.09;81.19;97845.72;299396;236;63005;-54
2021/02/12 06:08:03;;;;;;;2.25;2.15;;;;;;;-11.06;81.79;97852.47;299396;251;63004;-54
2021/02/12 06:13:31;;;;;;;1.10;1.10;;;;;;;-10.94;82.28;97849.59;299396;207;63009;-54
2021/02/12 06:19:17;;;;;;;1.20;1.20;;;;;;;-10.93;82.13;97846.00;299396;238;63005;-54
2021/02/12 06:24:43;;;;;;;1.20;1.20;;;;;;;-10.96;81.45;97848.91;299396;241;63009;-55
2021/02/12 06:29:49;;;;;;;1.17;1.17;;;;;;;-11.01;80.47;97851.09;299396;284;63004;-53
2021/02/12 06:35:37;;;;;;;1.10;1.10;;;;;;;-10.95;80.81;97850.56;299397;222;63009;-58
2021/02/12 06:41:22;;;;;;;1.20;1.20;;;;;;;-10.85;81.76;97851.41;299397;232;63005;-54
2021/02/12 06:46:37;;;;;;;1.10;1.10;;;;;;;-10.91;81.52;97846.72;299395;223;63005;-53
2021/02/12 06:51:42;;;;;;;1.20;1.20;;;;;;;-10.85;81.54;97840.09;299395;202;63009;-59
2021/02/12 06:56:54;;;;;;;1.20;1.20;;;;;;;-10.77;80.40;97845.50;299395;202;63005;-58
2021/02/12 07:02:15;;;;;;;1.20;1.20;;;;;;;-10.87;81.58;97853.34;299395;211;63009;-54
2021/02/12 07:07:37;;;;;;;1.20;1.20;;;;;;;-10.90;81.48;97853.59;299395;206;63010;-58
2021/02/12 07:12:47;;;;;;;1.20;1.20;;;;;;;-10.95;82.45;97862.84;299395;209;63009;-54
2021/02/12 07:17:56;;;;;;;1.20;1.20;;;;;;;-10.79;82.45;97865.78;299395;211;63009;-58
2021/02/12 07:23:13;;;;;;;1.30;1.30;;;;;;;-10.70;82.39;97864.09;299395;228;63009;-54
2021/02/12 07:28:33;;;;;;;1.20;1.20;;;;;;;-10.67;82.48;97879.56;299395;208;63004;-60
2021/02/12 07:33:54;;;;;;;1.20;1.20;;;;;;;-10.63;82.85;97875.72;299395;264;63023;-58
2021/02/12 07:39:16;;;;;;;1.20;1.20;;;;;;;-10.54;82.68;97873.13;299395;222;63005;-55
2021/02/12 07:44:17;;;;;;;1.20;1.20;;;;;;;-10.43;82.13;97866.91;299395;202;63008;-58
2021/02/12 07:49:55;;;;;;;1.20;1.20;;;;;;;-10.33;82.24;97874.75;299395;245;63012;-58
2021/02/12 07:55:09;;;;;;;1.20;1.20;;;;;;;-10.19;81.29;97875.16;299395;230;63009;-57
2021/02/12 08:00:22;;;;;;;1.20;1.20;;;;;;;-10.12;81.27;97874.59;299417;211;63005;-58
2021/02/12 08:05:49;;;;;;;1.20;1.20;;;;;;;-9.97;80.93;97875.81;299395;220;63009;-57
2021/02/12 08:10:57;;;;;;;1.15;1.15;;;;;;;-9.82;79.84;97877.03;299395;222;63005;-57
2021/02/12 08:16:27;;;;;;;1.20;1.20;;;;;;;-9.54;79.54;97875.28;299395;207;63009;-57
2021/02/12 08:21:42;;;;;;;1.20;1.20;;;;;;;-9.12;78.81;97883.56;299395;217;63004;-57
2021/02/12 08:26:51;;;;;;;1.20;1.20;;;;;;;-8.91;77.45;97873.63;299395;207;63009;-55
2021/02/12 08:31:57;;;;;;;1.20;1.20;;;;;;;-8.99;77.39;97881.41;299395;202;63005;-56
2021/02/12 08:36:59;;;;;;;1.10;1.10;;;;;;;-8.81;78.07;97890.19;299395;215;63008;-56
2021/02/12 08:42:01;;;;;;;1.20;1.20;;;;;;;-8.43;77.05;97882.19;299395;213;63004;-56
2021/02/12 08:47:04;;;;;;;1.20;1.20;;;;;;;-8.29;76.42;97874.56;299395;203;63009;-56
2021/02/12 08:52:06;;;;;;;1.10;1.10;;;;;;;-7.75;74.37;97872.69;299395;672;63004;-55
2021/02/12 08:57:08;;;;;;;1.10;1.10;;;;;;;-7.32;71.86;97868.34;299395;233;63009;-58
2021/02/12 09:02:13;;;;;;;1.10;1.10;;;;;;;-6.94;72.36;97867.87;299395;213;63005;-55
2021/02/12 09:07:18;;;;;;;2.60;2.45;;;;;;;-6.80;71.00;97863.78;299395;464;63009;-56
2021/02/12 09:12:19;;;;;;;1.37;1.37;;;;;;;-6.47;70.33;97862.03;299395;431;63004;-56
2021/02/12 09:17:22;;;;;;;1.20;1.20;;;;;;;-6.50;69.63;97865.00;299395;347;63009;-55
2021/02/12 09:22:27;;;;;;;1.10;1.10;;;;;;;-6.63;69.03;97862.84;299417;505;125005;-58
2021/02/12 09:27:31;;;;;;;1.10;1.10;;;;;;;-6.44;68.81;97864.38;299417;229;63009;-57
2021/02/12 09:32:34;;;;;;;;;;;;;;;-6.68;69.48;97861.69;299996;983;6000;-55
2021/02/12 09:37:37;;;;;;;1.08;1.08;;;;;;;-6.73;68.95;97858.69;299400;464;63005;-57
2021/02/12 09:42:40;;;;;;;1.10;1.10;;;;;;;-6.77;70.26;97866.94;299416;702;64009;-56
2021/02/12 09:47:44;;;;;;;1.10;1.10;;;;;;;-6.84;69.64;97868.53;299395;202;63004;-59
2021/02/12 09:53:03;;;;;;;1.00;1.00;;;;;;;-6.62;69.22;97871.59;299417;271;63020;-55
2021/02/12 09:58:06;;;;;;;1.10;1.10;;;;;;;-6.50;66.87;97854.44;299395;464;63004;-56
2021/02/12 10:03:11;;;;;;;1.10;1.10;;;;;;;-6.43;67.07;97853.66;299395;213;63009;-59
2021/02/12 10:08:15;;;;;;;1.10;1.10;;;;;;;-6.26;64.67;97840.47;299395;769;63005;-56
2021/02/12 10:13:17;;;;;;;;;;;;;;;-6.27;65.76;97858.13;299996;982;6004;-55
2021/02/12 10:18:23;;;;;;;1.00;1.00;;;;;;;-6.40;64.91;97855.12;299400;222;63009;-57
2021/02/12 10:23:29;;;;;;;1.00;1.00;;;;;;;-6.33;64.16;97855.31;299395;809;63005;-57
2021/02/12 10:28:33;;;;;;;2.75;2.65;;;;;;;-6.01;66.55;97865.06;299395;928;63008;-56
2021/02/12 10:33:35;;;;;;;1.00;1.00;;;;;;;-5.93;67.05;97873.00;299417;464;63004;-58
2021/02/12 10:38:42;;;;;;;1.00;1.00;;;;;;;-5.71;64.40;97858.25;299395;295;63009;-60
2021/02/12 10:43:49;;;;;;;1.00;1.00;;;;;;;-5.54;63.20;97858.06;299395;198;63004;-56
2021/02/12 10:48:55;;;;;;;1.00;1.00;;;;;;;-5.36;64.02;97854.41;299395;722;63009;-56
2021/02/12 10:54:01;;;;;;;1.00;1.00;;;;;;;-5.36;63.51;97860.50;299395;815;63005;-57
2021/02/12 10:59:06;;;;;;;1.00;1.00;;;;;;;-5.30;60.80;97853.72;299395;427;63009;-57
2021/02/12 11:04:10;;;;;;;1.10;1.10;;;;;;;-5.31;61.41;97842.31;299395;198;63004;-59
2021/02/12 11:09:28;;;;;;;1.10;1.10;;;;;;;-5.19;60.47;97848.03;299417;237;63009;-58
2021/02/12 11:14:50;;;;;;;1.00;1.00;;;;;;;-5.08;61.05;97850.34;299395;198;63005;-56
2021/02/12 11:19:56;;;;;;;1.00;1.00;;;;;;;-5.07;59.11;97842.22;299395;213;63008;-56
2021/02/12 11:24:58;;;;;;;1.00;1.00;;;;;;;-5.18;59.66;97847.06;299395;249;63004;-56
2021/02/12 11:30:02;;;;;;;0.98;0.98;;;;;;;-5.03;59.26;97840.06;299395;454;63009;-56
2021/02/12 11:35:05;;;;;;;1.00;1.00;;;;;;;-4.90;58.32;97845.66;299417;230;63009;-56
2021/02/12 11:40:13;;;;;;;1.00;1.00;;;;;;;-4.83;59.58;97841.28;299395;211;63009;-59
2021/02/12 11:45:15;;;;;;;1.00;1.00;;;;;;;-4.80;59.00;97838.28;299395;213;63005;-56
2021/02/12 11:50:18;;;;;;;1.00;1.00;;;;;;;-4.64;59.10;97845.34;299395;227;63008;-57
2021/02/12 11:55:20;;;;;;;1.00;1.00;;;;;;;-4.50;57.97;97830.50;299395;333;63004;-55
2021/02/12 12:00:23;;;;;;;1.00;1.00;;;;;;;-4.50;58.12;97827.88;299395;207;63005;-55
2021/02/12 12:05:27;;;;;;;1.12;1.12;;;;;;;-4.45;58.59;97817.56;299395;226;63004;-55
2021/02/12 12:10:29;;;;;;;1.00;1.00;;;;;;;-4.44;59.28;97835.13;299417;310;63009;-60
2021/02/12 12:15:31;;;;;;;0.90;0.90;;;;;;;-4.25;59.72;97834.69;299395;214;63005;-57
2021/02/12 12:20:37;;;;;;;1.00;1.00;;;;;;;-4.19;55.50;97810.12;299395;214;63009;-57
2021/02/12 12:25:40;;;;;;;1.00;1.00;;;;;;;-4.17;57.68;97829.31;299395;322;63004;-62
2021/02/12 12:30:42;;;;;;;0.90;0.90;;;;;;;-3.98;57.12;97820.06;299395;284;63009;-62
2021/02/12 12:35:49;;;;;;;1.00;1.00;;;;;;;-3.83;55.73;97820.09;299395;259;63014;-56
2021/02/12 12:40:52;;;;;;;1.00;1.00;;;;;;;-3.89;55.50;97813.69;299395;252;63009;-56
2021/02/12 12:45:57;;;;;;;1.00;1.00;;;;;;;-3.82;56.65;97811.16;299395;198;63005;-57
2021/02/12 12:50:58;;;;;;;1.00;1.00;;;;;;;-3.74;55.88;97819.81;299417;213;63009;-58
2021/02/12 12:56:07;;;;;;;0.90;0.90;;;;;;;-3.64;56.11;97805.50;299395;213;63004;-56
2021/02/12 13:01:13;;;;;;;1.00;1.00;;;;;;;-3.65;56.46;97809.97;299395;211;63017;-63
2021/02/12 13:06:17;;;;;;;1.00;1.00;;;;;;;-3.56;55.92;97800.94;299395;263;63005;-57
2021/02/12 13:11:29;;;;;;;3.40;3.20;;;;;;;-3.55;54.80;97799.09;299395;288;63009;-57
2021/02/12 13:16:36;;;;;;;1.00;1.00;;;;;;;-3.61;54.49;97794.53;299395;231;63004;-64
2021/02/12 13:21:38;;;;;;;0.90;0.90;;;;;;;-3.50;55.55;97792.25;299395;208;63009;-56
2021/02/12 13:26:45;;;;;;;0.90;0.90;;;;;;;-3.43;54.67;97787.84;299395;215;63004;-56
2021/02/12 13:31:58;;;;;;;1.00;1.00;;;;;;;-3.46;53.51;97788.19;299395;248;63009;-58
2021/02/12 13:37:02;;;;;;;1.00;1.00;;;;;;;-3.39;52.42;97786.47;299395;307;63005;-55
2021/02/12 13:42:13;;;;;;;1.00;1.00;;;;;;;-3.41;54.17;97791.13;299417;203;63008;-56
2021/02/12 13:47:15;;;;;;;1.00;1.00;;;;;;;-3.45;52.61;97794.34;299395;284;63004;-54
2021/02/12 13:52:22;;;;;;;0.90;0.90;;;;;;;-3.44;51.80;97796.81;299395;226;63009;-66
2021/02/12 13:57:28;;;;;;;1.90;1.80;;;;;;;-3.54;51.23;97790.97;299395;227;63004;-68
2021/02/12 14:02:30;;;;;;;0.90;0.90;;;;;;;-3.55;53.21;97799.94;299395;202;63004;-56
2021/02/12 14:07:33;;;;;;;0.90;0.90;;;;;;;-3.45;53.49;97805.78;299395;225;63005;-55
2021/02/12 14:12:39;;;;;;;0.90;0.90;;;;;;;-3.41;53.20;97798.28;299395;242;63009;-56
2021/02/12 14:17:44;;;;;;;0.90;0.90;;;;;;;-3.35;53.78;97799.38;299395;329;63004;-56
2021/02/12 14:22:47;;;;;;;0.90;0.90;;;;;;;-3.33;52.37;97802.69;299395;367;63009;-55
2021/02/12 14:27:51;;;;;;;0.90;0.90;;;;;;;-3.34;53.06;97801.84;299395;204;63005;-56
2021/02/12 14:32:57;;;;;;;1.00;1.00;;;;;;;-3.53;54.06;97813.00;299417;351;63009;-55
2021/02/12 14:38:00;;;;;;;1.00;1.00;;;;;;;-3.52;54.16;97812.84;299395;292;63000;-64
2021/02/12 14:43:04;;;;;;;0.90;0.90;;;;;;;-3.63;53.85;97807.97;299395;286;63009;-55
2021/02/12 14:48:09;;;;;;;1.52;1.48;;;;;;;-3.68;51.67;97815.63;299417;314;63004;-54
2021/02/12 14:53:11;;;;;;;1.00;1.00;;;;;;;-3.63;53.27;97818.56;299395;208;63009;-56
2021/02/12 14:58:12;;;;;;;1.30;1.30;;;;;;;-3.76;53.31;97813.87;299395;222;63005;-54
2021/02/12 15:03:15;;;;;;;1.00;1.00;;;;;;;-3.84;54.65;97821.09;299395;213;63008;-65
2021/02/12 15:08:18;;;;;;;1.00;1.00;;;;;;;-3.86;53.23;97833.72;299395;217;63004;-64
2021/02/12 15:13:21;;;;;;;1.00;1.00;;;;;;;-4.14;53.35;97834.25;299395;207;63009;-55
2021/02/12 15:18:27;;;;;;;1.00;1.00;;;;;;;-4.31;53.90;97838.03;299395;210;63004;-53
2021/02/12 15:23:36;;;;;;;0.90;0.90;;;;;;;-4.63;55.94;97852.28;299395;378;63009;-62
2021/02/12 15:28:46;;;;;;;0.90;0.90;;;;;;;-4.73;57.21;97873.69;299395;225;63005;-53
2021/02/12 15:33:51;;;;;;;1.00;1.00;;;;;;;-4.88;57.35;97882.53;299395;227;63008;-53
2021/02/12 15:39:01;;;;;;;0.90;0.90;;;;;;;-4.86;57.70;97878.72;299395;226;63010;-54
2021/02/12 15:44:05;;;;;;;1.00;1.00;;;;;;;-4.92;58.00;97889.16;299395;277;63009;-63
2021/02/12 15:49:09;;;;;;;1.02;1.02;;;;;;;-5.02;58.12;97904.41;299417;218;63005;-53
2021/02/12 15:54:15;;;;;;;1.00;1.00;;;;;;;-5.30;60.55;97922.50;299417;259;63009;-65
2021/02/12 15:59:22;;;;;;;1.00;1.00;;;;;;;-5.30;60.63;97919.84;299395;212;63005;-53
2021/02/12 16:04:28;;;;;;;1.00;1.00;;;;;;;-5.55;61.07;97927.00;299395;338;63021;-54
2021/02/12 16:09:34;;;;;;;1.00;1.00;;;;;;;-5.56;61.18;97923.53;299395;218;63004;-53
2021/02/12 16:14:38;;;;;;;1.00;1.00;;;;;;;-5.60;61.14;97927.50;299395;215;63009;-64
2021/02/12 16:19:47;;;;;;;;;;;;;;;-5.73;61.49;97937.72;299996;983;6010;-53
2021/02/12 16:24:51;;;;;;;1.08;1.08;;;;;;;-5.80;61.49;97942.00;299400;218;63004;-53
2021/02/12 16:29:55;;;;;;;;;;;;;;;-5.90;61.83;97951.97;299996;983;5991;-53
2021/02/12 16:34:59;;;;;;;1.00;1.00;;;;;;;-6.02;63.62;97954.09;299400;237;63009;-58
2021/02/12 16:40:10;;;;;;;1.00;1.00;;;;;;;-5.96;62.14;97950.81;299417;202;63004;-53
2021/02/12 16:45:25;;;;;;;1.00;1.00;;;;;;;-6.21;63.73;97963.12;299395;363;63009;-54
2021/02/12 16:50:28;;;;;;;1.00;1.00;;;;;;;-6.27;64.70;97971.72;299395;334;63005;-53
2021/02/12 16:55:30;;;;;;;1.00;1.00;;;;;;;-6.25;64.61;97977.66;299395;228;63008;-54
2021/02/12 17:00:40;;;;;;;1.00;1.00;;;;;;;-6.40;65.75;97981.87;299395;214;63004;-56
2021/02/12 17:05:58;;;;;;;1.10;1.10;;;;;;;-6.48;65.30;97987.13;299395;227;63009;-53
2021/02/12 17:11:04;;;;;;;1.00;1.00;;;;;;;-6.55;65.49;97999.31;299395;202;63004;-54
2021/02/12 17:16:09;;;;;;;1.00;1.00;;;;;;;-6.67;66.75;98000.59;299395;293;63009;-54
2021/02/12 17:21:10;;;;;;;;;;;;;;;-6.76;66.40;98013.72;299996;983;6000;-63
2021/02/12 17:26:12;;;;;;;1.10;1.10;;;;;;;-6.70;66.49;98022.84;299400;212;63005;-61
2021/02/12 17:31:14;;;;;;;1.00;1.00;;;;;;;-6.87;67.93;98016.63;299395;473;63009;-63
2021/02/12 17:36:16;;;;;;;1.00;1.00;;;;;;;-6.85;65.98;98014.66;299396;393;63005;-52
2021/02/12 17:41:18;;;;;;;1.10;1.10;;;;;;;-6.91;66.73;98023.19;299396;324;63009;-53
2021/02/12 17:46:22;;;;;;;1.00;1.00;;;;;;;-6.84;66.08;98018.97;299423;202;63004;-52
2021/02/12 17:51:25;;;;;;;1.00;1.00;;;;;;;-7.05;67.21;98029.06;299396;766;63009;-61
2021/02/12 17:56:33;;;;;;;1.08;1.08;;;;;;;-7.06;66.89;98022.13;299396;488;63005;-61
2021/02/12 18:01:34;;;;;;;1.00;1.00;;;;;;;-7.07;67.81;98035.47;299396;640;63009;-53
2021/02/12 18:06:38;;;;;;;1.00;1.00;;;;;;;-7.16;67.36;98045.13;299396;648;63005;-52
2021/02/12 18:11:46;;;;;;;1.05;1.05;;;;;;;-7.25;68.62;98040.75;299418;252;63009;-60
2021/02/12 18:16:49;;;;;;;1.00;1.00;;;;;;;-7.07;66.42;98044.22;299397;679;63004;-54
2021/02/12 18:21:51;;;;;;;2.83;2.73;;;;;;;-7.20;68.47;98049.03;299419;236;63009;-60
2021/02/12 18:26:52;;;;;;;1.05;1.05;;;;;;;-7.16;67.45;98058.31;299396;300;63005;-53
2021/02/12 18:31:54;;;;;;;1.00;1.00;;;;;;;-7.15;67.05;98054.69;299396;751;63008;-53
2021/02/12 18:36:56;;;;;;;1.00;1.00;;;;;;;-7.22;66.64;98064.19;299396;196;63004;-53
2021/02/12 18:41:59;;;;;;;1.00;1.00;;;;;;;-7.23;67.67;98058.09;299396;378;63022;-53
2021/02/12 18:47:01;;;;;;;1.55;1.52;;;;;;;-7.28;67.60;98070.09;299396;483;63004;-55
2021/02/12 18:52:05;;;;;;;1.00;1.00;;;;;;;-7.30;66.60;98054.44;299396;883;63009;-59
2021/02/12 18:57:07;;;;;;;1.00;1.00;;;;;;;-7.34;67.76;98065.44;299396;198;63005;-53
2021/02/12 19:02:10;;;;;;;1.10;1.10;;;;;;;-7.39;66.86;98057.16;299396;306;63008;-53
2021/02/12 19:07:12;;;;;;;1.10;1.10;;;;;;;-7.36;66.40;98060.31;299396;202;63004;-52
2021/02/12 19:12:16;;;;;;;1.10;1.10;;;;;;;-7.37;67.67;98066.56;299397;234;63009;-53
2021/02/12 19:17:18;;;;;;;1.10;1.10;;;;;;;-7.38;67.42;98069.34;299397;196;63004;-53
2021/02/12 19:22:24;;;;;;;1.00;1.00;;;;;;;-7.48;68.40;98069.41;299395;204;63009;-53
2021/02/12 19:27:29;;;;;;;1.00;1.00;;;;;;;-7.47;68.78;98082.44;299395;311;63005;-54
2021/02/12 19:32:32;;;;;;;1.00;1.00;;;;;;;-7.37;68.41;98086.81;299395;445;63009;-53
2021/02/12 19:37:35;;;;;;;1.10;1.10;;;;;;;-7.60;69.87;98091.69;299395;288;63004;-51
2021/02/12 19:42:39;;;;;;;1.00;1.00;;;;;;;-7.56;68.99;98087.78;299416;202;63009;-52
2021/02/12 19:47:41;;;;;;;1.20;1.20;;;;;;;-7.65;69.90;98080.81;299395;466;63005;-53
2021/02/12 19:52:48;;;;;;;1.10;1.10;;;;;;;-7.78;71.02;98094.31;299395;286;63009;-53
2021/02/12 19:57:50;;;;;;;1.10;1.10;;;;;;;-7.44;67.94;98087.44;299395;214;63005;-53
2021/02/12 20:02:56;;;;;;;1.10;1.10;;;;;;;-7.71;69.39;98095.41;299395;214;63009;-53
2021/02/12 20:07:57;;;;;;;1.10;1.10;;;;;;;-7.85;69.48;98098.53;299395;638;63004;-52
2021/02/12 20:13:00;;;;;;;1.10;1.10;;;;;;;-7.90;69.79;98111.31;299395;640;63009;-55
2021/02/12 20:18:02;;;;;;;1.10;1.10;;;;;;;-7.74;69.40;98098.31;299395;637;63005;-53
2021/02/12 20:23:05;;;;;;;1.10;1.10;;;;;;;-7.89;70.46;98112.97;299394;772;64009;-54
2021/02/12 20:28:08;;;;;;;1.10;1.10;;;;;;;-7.82;69.06;98119.31;299395;265;63005;-53
2021/02/12 20:33:13;;;;;;;1.10;1.10;;;;;;;-8.00;71.04;98131.63;299395;277;63009;-53
2021/02/12 20:38:16;;;;;;;1.10;1.10;;;;;;;-8.08;69.96;98124.44;299395;492;63008;-52
2021/02/12 20:43:19;;;;;;;1.10;1.10;;;;;;;-8.09;71.67;98148.28;299395;199;63009;-60
2021/02/12 20:48:22;;;;;;;1.10;1.10;;;;;;;-8.11;70.29;98141.37;299395;202;63005;-53
2021/02/12 20:53:25;;;;;;;1.10;1.10;;;;;;;-8.07;69.97;98146.34;299395;218;63009;-53
2021/02/12 20:58:26;;;;;;;1.30;1.30;;;;;;;-8.25;69.59;98144.47;299417;431;63005;-53
2021/02/12 21:03:28;;;;;;;1.10;1.10;;;;;;;-8.24;70.92;98147.91;299395;236;63009;-53
2021/02/12 21:08:31;;;;;;;1.10;1.10;;;;;;;-8.20;71.19;98147.50;299395;263;63004;-52
2021/02/12 21:13:35;;;;;;;1.10;1.10;;;;;;;-8.36;72.79;98147.31;299395;237;63009;-54
2021/02/12 21:18:43;;;;;;;1.10;1.10;;;;;;;-8.45;71.95;98150.81;299395;211;63005;-53
2021/02/12 21:23:47;;;;;;;1.10;1.10;;;;;;;-8.46;72.97;98149.97;299395;208;63008;-53
2021/02/12 21:28:52;;;;;;;1.10;1.10;;;;;;;-8.51;71.21;98139.03;299417;208;63004;-53
2021/02/12 21:33:56;;;;;;;1.10;1.10;;;;;;;-8.57;72.85;98159.81;299395;448;63009;-55
2021/02/12 21:39:01;;;;;;;1.12;1.12;;;;;;;-8.66;72.79;98152.81;299395;231;63005;-53
2021/02/12 21:44:04;;;;;;;1.10;1.10;;;;;;;-8.78;73.96;98161.81;299395;204;63009;-54
2021/02/12 21:49:11;;;;;;;1.10;1.10;;;;;;;-8.89;74.70;98161.00;299395;257;63005;-53
2021/02/12 21:54:16;;;;;;;1.10;1.10;;;;;;;-8.84;73.70;98164.03;299395;266;63009;-53
2021/02/12 21:59:23;;;;;;;1.10;1.10;;;;;;;-8.98;73.61;98174.97;299395;229;63004;-53
2021/02/12 22:04:29;;;;;;;1.10;1.10;;;;;;;-9.05;73.95;98173.06;299395;242;63009;-53
2021/02/12 22:09:35;;;;;;;1.10;1.10;;;;;;;-8.96;72.97;98175.66;299395;232;63005;-61
2021/02/12 22:14:42;;;;;;;1.10;1.10;;;;;;;-8.92;72.64;98177.06;299395;196;63022;-54
2021/02/12 22:19:46;;;;;;;1.10;1.10;;;;;;;-8.92;74.02;98186.75;299395;219;63005;-54
2021/02/12 22:24:50;;;;;;;1.10;1.10;;;;;;;-9.06;74.37;98190.62;299395;217;63009;-54
2021/02/12 22:29:54;;;;;;;1.10;1.10;;;;;;;-9.04;74.67;98193.97;299395;333;63004;-54
2021/02/12 22:34:57;;;;;;;1.05;1.05;;;;;;;-9.04;74.42;98196.59;299395;202;63009;-54
2021/02/12 22:40:01;;;;;;;1.10;1.10;;;;;;;-9.12;74.62;98204.31;299395;214;63005;-60
2021/02/12 22:45:04;;;;;;;1.10;1.10;;;;;;;-9.05;73.39;98201.97;299417;240;63009;-54
2021/02/12 22:50:07;;;;;;;1.10;1.10;;;;;;;-9.11;73.25;98203.38;299417;224;63005;-53
2021/02/12 22:55:17;;;;;;;1.20;1.20;;;;;;;-9.14;73.13;98201.00;299395;271;63009;-53
2021/02/12 23:00:21;;;;;;;1.10;1.10;;;;;;;-9.22;73.61;98214.00;299395;240;63004;-55
2021/02/12 23:05:25;;;;;;;1.10;1.10;;;;;;;-9.23;74.40;98225.47;299417;236;63009;-61
2021/02/12 23:10:31;;;;;;;1.20;1.20;;;;;;;-9.26;73.55;98221.31;299417;223;63005;-54
2021/02/12 23:15:33;;;;;;;1.10;1.10;;;;;;;-9.25;72.80;98227.41;299395;233;63008;-54
2021/02/12 23:20:39;;;;;;;1.20;1.20;;;;;;;-9.29;73.01;98239.16;299417;197;63004;-53
2021/02/12 23:25:41;;;;;;;1.00;1.00;;;;;;;-9.23;70.88;98236.00;299395;293;63009;-53
2021/02/12 23:30:47;;;;;;;1.10;1.10;;;;;;;-9.30;72.08;98240.13;299395;204;63004;-54
2021/02/12 23:35:50;;;;;;;1.10;1.10;;;;;;;-9.29;72.26;98249.66;299395;253;63009;-53
2021/02/12 23:40:53;;;;;;;1.10;1.10;;;;;;;-9.25;69.98;98232.66;299395;257;63005;-61
2021/02/12 23:45:55;;;;;;;1.30;1.30;;;;;;;-9.37;71.48;98244.28;299395;215;63009;-54
2021/02/12 23:50:58;;;;;;;1.10;1.10;;;;;;;-9.37;71.27;98241.66;299395;207;63004;-53
2021/02/12 23:56:04;;;;;;;1.20;1.20;;;;;;;-9.27;71.49;98245.12;299417;222;63009;-53
